WIII

Jakarta/Soekarno-Hatta International Airport

Airport
ICAO code
WIII
IATA Code
CGK
Summary
ICAO Region
APAC
ICAO Territory
Location

Tangerang, Banten

Serving
Jakarta
Elevation
32 ft
Coordinates
6° 7' 37" S , 106° 39' 15" E
KCC
Aw
Metar
Observation
WIII 101000Z 05010KT 9000 FEW020 31/24 Q1008 NOSIG
Station
Jakarta / Soekarno-Hatta
Date/Time
2022-08-10 10:00:00
Wind direction
50°
Wind speed
10 kts
Lowest cloud amount
few clouds
Temperature
31°C
Dew point
24°C
Humidity
66%
QNH
1008 hPa
Weather condition
n/a

The principal international airport serving the Jakarta region.

Climatology

Tropical Savanna climate (Köppen climate classification Aw) - monthly mean temperature above 18°C in every month of the year and a pronounced dry season.

Airport map

Aerial View

Airport accidents

SKYbrary Partners:

Safety knowledge contributed by: